Terminal Aerodrome Forecast
Issued by NWS

Home | Current Version | Previous Version | Text Only | Print | Product List | Glossary On
Versions: 1 2 3 4 5 6 7 8 9 10 11 12 13 14 15 16 17 18 19 20 21 22 23 24 25 26 27 28 29 30 31 32
000
FTUS41 KCAR 190113 AAA
TAFBHB
TAF AMD
KBHB 190113Z 1901/1924 19015G30KT 6SM -RA OVC050
     FM190300 19015G24KT 5SM -RA OVC010
     FM190400 20016G26KT 2SM -RA BR OVC010
     FM191100 23016G26KT 1SM BR BKN010 WS020/23045KT
     FM191800 23018G28KT P6SM BKN003 WS020/23050KT=

USA.gov is the U.S. government's official web portal to all federal, state and local government web resources and services.